createdAt,value
2023-05-10T00:00:25.709Z,509.00
2023-05-10T00:01:25.756Z,504.00
2023-05-10T00:02:25.821Z,503.00
2023-05-10T00:03:25.934Z,505.00
2023-05-10T00:04:25.842Z,504.00
2023-05-10T00:05:25.877Z,507.00
2023-05-10T00:06:25.922Z,506.00
2023-05-10T00:07:25.971Z,509.00
2023-05-10T00:08:26.015Z,508.00
2023-05-10T00:09:26.051Z,506.00
2023-05-10T00:10:26.094Z,504.00
2023-05-10T00:11:26.149Z,504.00
2023-05-10T00:12:26.175Z,505.00
2023-05-10T00:13:26.384Z,510.00
2023-05-10T00:14:26.270Z,505.00
2023-05-10T00:15:26.323Z,507.00
2023-05-10T00:16:26.388Z,507.00
2023-05-10T00:17:26.419Z,507.00
2023-05-10T00:18:26.456Z,511.00
2023-05-10T00:19:26.503Z,513.00
2023-05-10T00:20:26.538Z,509.00
2023-05-10T00:21:26.575Z,504.00
2023-05-10T00:22:26.613Z,509.00
2023-05-10T00:23:26.660Z,507.00
2023-05-10T00:24:26.702Z,503.00
2023-05-10T00:25:26.766Z,508.00
2023-05-10T00:26:26.842Z,509.00
2023-05-10T00:27:26.843Z,513.00
2023-05-10T00:28:26.885Z,510.00
2023-05-10T00:29:26.921Z,507.00
2023-05-10T00:30:26.961Z,510.00
2023-05-10T00:31:27.016Z,507.00
2023-05-10T00:32:27.100Z,506.00
2023-05-10T00:33:27.082Z,510.00
2023-05-10T00:34:27.134Z,504.00
2023-05-10T00:35:27.176Z,505.00
2023-05-10T00:36:27.297Z,505.00
2023-05-10T00:37:27.267Z,506.00
2023-05-10T00:38:27.292Z,506.00
2023-05-10T00:39:27.323Z,506.00
2023-05-10T00:40:27.435Z,505.00
2023-05-10T00:41:27.399Z,506.00
2023-05-10T00:42:27.435Z,508.00
2023-05-10T00:43:27.477Z,504.00
2023-05-10T00:44:27.520Z,509.00
2023-05-10T00:45:27.571Z,505.00
2023-05-10T00:46:27.609Z,505.00
2023-05-10T00:47:27.653Z,510.00
2023-05-10T00:48:27.674Z,505.00
2023-05-10T00:49:27.713Z,510.00
2023-05-10T00:50:27.765Z,507.00
2023-05-10T00:51:27.798Z,504.00
2023-05-10T00:52:27.828Z,506.00
2023-05-10T00:53:27.876Z,509.00
2023-05-10T00:54:27.901Z,509.00
2023-05-10T00:55:27.950Z,507.00
2023-05-10T00:56:27.988Z,506.00
2023-05-10T00:57:28.011Z,505.00
2023-05-10T00:58:28.049Z,511.00
2023-05-10T00:59:28.086Z,504.00
2023-05-10T01:00:28.124Z,504.00
2023-05-10T01:01:28.204Z,512.00
2023-05-10T01:02:28.282Z,508.00
2023-05-10T01:03:28.251Z,507.00
2023-05-10T01:04:28.340Z,506.00
2023-05-10T01:05:28.308Z,505.00
2023-05-10T01:06:28.348Z,508.00
2023-05-10T01:07:28.397Z,508.00
2023-05-10T01:08:28.441Z,506.00
2023-05-10T01:09:28.485Z,509.00
2023-05-10T01:10:28.517Z,505.00
2023-05-10T01:11:28.566Z,506.00
2023-05-10T01:12:28.633Z,504.00
2023-05-10T01:13:28.736Z,505.00
2023-05-10T01:14:28.693Z,508.00
2023-05-10T01:15:28.730Z,505.00
2023-05-10T01:16:28.844Z,508.00
2023-05-10T01:17:28.823Z,507.00
2023-05-10T01:18:28.838Z,507.00
2023-05-10T01:19:28.892Z,509.00
2023-05-10T01:20:28.921Z,507.00
2023-05-10T01:21:28.955Z,504.00
2023-05-10T01:22:28.997Z,506.00
2023-05-10T01:23:29.038Z,508.00
2023-05-10T01:24:29.075Z,508.00
2023-05-10T01:25:29.116Z,512.00
2023-05-10T01:26:29.160Z,511.00
2023-05-10T01:27:29.196Z,512.00
2023-05-10T01:28:29.248Z,507.00
2023-05-10T01:29:29.271Z,508.00
2023-05-10T01:30:29.320Z,511.00
2023-05-10T01:31:29.389Z,507.00
2023-05-10T01:32:29.426Z,507.00
2023-05-10T01:33:29.428Z,505.00
2023-05-10T01:34:29.454Z,511.00
2023-05-10T01:35:29.496Z,507.00
2023-05-10T01:36:29.543Z,506.00
2023-05-10T01:37:29.580Z,509.00
2023-05-10T01:38:29.633Z,510.00
2023-05-10T01:39:29.672Z,507.00
2023-05-10T01:40:29.705Z,508.00
2023-05-10T01:41:29.744Z,508.00
2023-05-10T01:42:30.550Z,509.00
2023-05-10T01:43:29.825Z,511.00
2023-05-10T01:44:29.851Z,509.00
2023-05-10T01:45:29.886Z,506.00
2023-05-10T01:46:29.998Z,510.00
2023-05-10T01:47:29.982Z,508.00
2023-05-10T01:48:30.014Z,510.00
2023-05-10T01:49:30.062Z,511.00
2023-05-10T01:50:30.098Z,511.00
2023-05-10T01:51:30.175Z,508.00
2023-05-10T01:52:30.174Z,508.00
2023-05-10T01:53:30.219Z,512.00
2023-05-10T01:54:30.278Z,505.00
2023-05-10T01:55:30.303Z,507.00
2023-05-10T01:56:30.340Z,509.00
2023-05-10T01:57:30.378Z,510.00
2023-05-10T01:58:30.423Z,514.00
2023-05-10T01:59:30.471Z,508.00
2023-05-10T02:00:30.551Z,508.00
2023-05-10T02:01:30.552Z,509.00
2023-05-10T02:02:30.655Z,511.00
2023-05-10T02:03:30.693Z,509.00
2023-05-10T02:04:30.676Z,509.00
2023-05-10T02:05:30.728Z,508.00
2023-05-10T02:06:30.755Z,508.00
2023-05-10T02:07:30.815Z,509.00
2023-05-10T02:08:30.837Z,509.00
2023-05-10T02:09:30.888Z,511.00
2023-05-10T02:10:30.926Z,510.00
2023-05-10T02:11:30.972Z,506.00
2023-05-10T02:12:31.557Z,510.00
2023-05-10T02:13:31.142Z,511.00
2023-05-10T02:14:31.110Z,504.00
2023-05-10T02:15:31.160Z,506.00
2023-05-10T02:16:31.223Z,515.00
2023-05-10T02:17:31.240Z,512.00
2023-05-10T02:18:31.295Z,507.00
2023-05-10T02:19:31.333Z,509.00
2023-05-10T02:20:31.377Z,512.00
2023-05-10T02:21:31.427Z,505.00
2023-05-10T02:22:31.472Z,514.00
2023-05-10T02:23:31.524Z,509.00
2023-05-10T02:24:31.558Z,506.00
2023-05-10T02:25:31.592Z,510.00
2023-05-10T02:26:31.623Z,508.00
2023-05-10T02:27:31.685Z,511.00
2023-05-10T02:28:31.724Z,508.00
2023-05-10T02:29:31.771Z,510.00
2023-05-10T02:30:31.805Z,507.00
2023-05-10T02:31:31.851Z,511.00
2023-05-10T02:32:31.937Z,508.00
2023-05-10T02:33:31.930Z,507.00
2023-05-10T02:34:31.960Z,512.00
2023-05-10T02:35:32.002Z,516.00
2023-05-10T02:36:32.045Z,511.00
2023-05-10T02:37:32.092Z,508.00
2023-05-10T02:38:32.161Z,508.00
2023-05-10T02:39:32.180Z,508.00
2023-05-10T02:40:32.228Z,513.00
2023-05-10T02:41:32.275Z,508.00
2023-05-10T02:42:32.315Z,509.00
2023-05-10T02:43:32.353Z,515.00
2023-05-10T02:44:32.414Z,511.00
2023-05-10T02:45:32.447Z,511.00
2023-05-10T02:46:32.573Z,510.00
2023-05-10T02:47:32.568Z,510.00
2023-05-10T02:48:32.592Z,513.00
2023-05-10T02:49:32.639Z,509.00
2023-05-10T02:50:32.670Z,511.00
2023-05-10T02:51:32.735Z,509.00
2023-05-10T02:52:32.773Z,507.00
2023-05-10T02:53:32.858Z,506.00
2023-05-10T02:54:32.875Z,511.00
2023-05-10T02:55:32.932Z,514.00
2023-05-10T02:56:32.962Z,512.00
2023-05-10T02:57:33.022Z,506.00
2023-05-10T02:58:33.092Z,510.00
2023-05-10T02:59:33.142Z,512.00
2023-05-10T03:00:33.175Z,515.00
2023-05-10T03:01:33.278Z,509.00
2023-05-10T03:02:33.390Z,511.00
2023-05-10T03:03:33.329Z,509.00
2023-05-10T03:04:33.381Z,508.00
2023-05-10T03:05:33.443Z,514.00
2023-05-10T03:06:33.484Z,506.00
2023-05-10T03:07:33.533Z,508.00
2023-05-10T03:08:33.569Z,509.00
2023-05-10T03:09:33.624Z,508.00
2023-05-10T03:10:33.683Z,510.00
2023-05-10T03:11:33.735Z,506.00
2023-05-10T03:12:33.769Z,509.00
2023-05-10T03:13:33.895Z,511.00
2023-05-10T03:14:33.877Z,509.00
2023-05-10T03:15:33.918Z,509.00
2023-05-10T03:16:34.013Z,508.00
2023-05-10T03:17:34.045Z,510.00
2023-05-10T03:18:34.048Z,514.00
2023-05-10T03:19:34.096Z,510.00
2023-05-10T03:20:34.134Z,515.00
2023-05-10T03:21:34.194Z,511.00
2023-05-10T03:22:34.243Z,515.00
2023-05-10T03:23:34.294Z,510.00
2023-05-10T03:24:34.349Z,514.00
2023-05-10T03:25:34.400Z,506.00
2023-05-10T03:26:34.449Z,513.00
2023-05-10T03:27:34.488Z,514.00
2023-05-10T03:28:34.552Z,512.00
2023-05-10T03:29:34.595Z,512.00
2023-05-10T03:30:34.638Z,510.00
2023-05-10T03:31:34.733Z,508.00
2023-05-10T03:32:34.755Z,510.00
2023-05-10T03:33:34.799Z,510.00
2023-05-10T03:34:34.845Z,515.00
2023-05-10T03:35:34.899Z,511.00
2023-05-10T03:36:34.947Z,516.00
2023-05-10T03:37:34.997Z,515.00
2023-05-10T03:38:35.053Z,512.00
2023-05-10T03:39:35.102Z,517.00
2023-05-10T03:40:35.158Z,512.00
2023-05-10T03:41:35.207Z,509.00
2023-05-10T03:42:35.271Z,515.00
2023-05-10T03:43:35.326Z,511.00
2023-05-10T03:44:35.378Z,513.00
2023-05-10T03:45:35.416Z,512.00
2023-05-10T03:46:35.477Z,511.00
2023-05-10T03:47:35.550Z,518.00
2023-05-10T03:48:35.572Z,512.00
2023-05-10T03:49:35.637Z,509.00
2023-05-10T03:50:35.689Z,513.00
2023-05-10T03:51:35.716Z,514.00
2023-05-10T03:52:35.776Z,513.00
2023-05-10T03:53:35.823Z,512.00
2023-05-10T03:54:35.888Z,516.00
2023-05-10T03:55:35.929Z,516.00
2023-05-10T03:56:35.984Z,510.00
2023-05-10T03:57:36.036Z,513.00
2023-05-10T03:58:36.099Z,515.00
2023-05-10T03:59:36.141Z,514.00
2023-05-10T04:00:36.210Z,516.00
2023-05-10T04:01:36.287Z,514.00
2023-05-10T04:02:36.433Z,508.00
2023-05-10T04:03:36.493Z,517.00
2023-05-10T04:04:36.413Z,514.00
2023-05-10T04:05:36.454Z,515.00
2023-05-10T04:06:36.565Z,514.00
2023-05-10T04:07:36.559Z,515.00
2023-05-10T04:08:36.622Z,511.00
2023-05-10T04:09:36.666Z,518.00
2023-05-10T04:10:36.714Z,515.00
2023-05-10T04:11:36.764Z,516.00
2023-05-10T04:12:36.838Z,516.00
2023-05-10T04:13:36.906Z,513.00
2023-05-10T04:14:36.924Z,514.00
2023-05-10T04:15:36.981Z,515.00
2023-05-10T04:16:37.114Z,515.00
2023-05-10T04:17:37.121Z,515.00
2023-05-10T04:18:37.137Z,514.00
2023-05-10T04:19:37.193Z,514.00
2023-05-10T04:20:37.251Z,516.00
2023-05-10T04:21:37.308Z,519.00
2023-05-10T04:22:37.354Z,514.00
2023-05-10T04:23:37.402Z,516.00
2023-05-10T04:24:37.444Z,519.00
2023-05-10T04:25:37.493Z,518.00
2023-05-10T04:26:37.558Z,518.00
2023-05-10T04:27:37.626Z,513.00
2023-05-10T04:28:37.690Z,516.00
2023-05-10T04:29:37.709Z,516.00
2023-05-10T04:30:37.782Z,517.00
2023-05-10T04:31:37.815Z,516.00
2023-05-10T04:32:37.897Z,518.00
2023-05-10T04:33:37.924Z,517.00
2023-05-10T04:34:37.967Z,512.00
2023-05-10T04:35:38.606Z,515.00
2023-05-10T04:36:38.080Z,514.00
2023-05-10T04:37:38.125Z,514.00
2023-05-10T04:38:38.183Z,511.00
2023-05-10T04:39:40.237Z,512.00
2023-05-10T04:40:38.230Z,522.00
2023-05-10T04:41:38.300Z,518.00
2023-05-10T04:42:38.225Z,522.00
2023-05-10T04:43:38.244Z,516.00
2023-05-10T04:44:38.225Z,517.00
2023-05-10T04:45:38.217Z,517.00
2023-05-10T04:46:38.222Z,519.00
2023-05-10T04:47:38.336Z,516.00
2023-05-10T04:48:38.214Z,516.00
2023-05-10T04:49:38.229Z,518.00
2023-05-10T04:50:38.210Z,513.00
2023-05-10T04:51:38.204Z,514.00
2023-05-10T04:52:38.207Z,515.00
2023-05-10T04:53:38.203Z,515.00
2023-05-10T04:54:38.205Z,514.00
2023-05-10T04:55:38.286Z,513.00
2023-05-10T04:56:38.215Z,517.00
2023-05-10T04:57:38.220Z,509.00
2023-05-10T04:58:38.215Z,518.00
2023-05-10T04:59:38.224Z,515.00
2023-05-10T05:00:38.214Z,518.00
2023-05-10T05:01:38.277Z,518.00
2023-05-10T05:02:38.283Z,518.00
2023-05-10T05:03:38.327Z,513.00
2023-05-10T05:04:38.243Z,513.00
2023-05-10T05:05:38.228Z,517.00
2023-05-10T05:06:38.239Z,513.00
2023-05-10T05:07:38.231Z,514.00
2023-05-10T05:08:38.242Z,513.00
2023-05-10T05:09:38.239Z,515.00
2023-05-10T05:10:38.241Z,510.00
2023-05-10T05:11:38.256Z,519.00
2023-05-10T05:12:38.254Z,513.00
2023-05-10T05:13:38.263Z,513.00
2023-05-10T05:14:38.271Z,515.00
2023-05-10T05:15:38.306Z,514.00
2023-05-10T05:16:38.293Z,513.00
2023-05-10T05:17:38.365Z,511.00
2023-05-10T05:18:38.303Z,500.00
2023-05-10T05:19:38.272Z,500.00
2023-05-10T05:20:38.283Z,552.00
2023-05-10T05:21:38.291Z,560.00
2023-05-10T05:22:38.295Z,590.00
2023-05-10T05:23:38.313Z,598.00
2023-05-10T05:24:38.328Z,624.00
2023-05-10T05:25:39.129Z,612.00
2023-05-10T05:26:38.320Z,618.00
2023-05-10T05:27:38.333Z,610.00
2023-05-10T05:28:38.350Z,613.00
2023-05-10T05:29:38.362Z,619.00
2023-05-10T05:30:38.383Z,617.00
2023-05-10T05:31:38.445Z,591.00
2023-05-10T05:32:38.508Z,578.00
2023-05-10T05:33:39.195Z,576.00
2023-05-10T05:34:38.559Z,594.00
2023-05-10T05:35:38.587Z,597.00
2023-05-10T05:36:38.637Z,596.00
2023-05-10T05:37:38.642Z,598.00
2023-05-10T05:38:38.668Z,610.00
2023-05-10T05:39:38.681Z,606.00
2023-05-10T05:40:38.696Z,607.00
2023-05-10T05:41:38.705Z,611.00
2023-05-10T05:42:38.742Z,611.00
2023-05-10T05:43:38.803Z,617.00
2023-05-10T05:44:38.786Z,617.00
2023-05-10T05:45:38.836Z,623.00
2023-05-10T05:46:38.879Z,623.00
2023-05-10T05:47:38.947Z,624.00
2023-05-10T05:48:38.990Z,627.00
2023-05-10T05:49:39.048Z,626.00
2023-05-10T05:50:39.119Z,626.00
2023-05-10T05:51:39.187Z,628.00
2023-05-10T05:52:39.255Z,628.00
2023-05-10T05:53:39.359Z,627.00
2023-05-10T05:54:39.424Z,626.00
2023-05-10T05:55:39.448Z,633.00
2023-05-10T05:56:39.561Z,638.00
2023-05-10T05:57:39.581Z,641.00
2023-05-10T05:58:39.649Z,648.00
2023-05-10T05:59:39.721Z,641.00
2023-05-10T06:00:39.770Z,642.00
2023-05-10T06:01:39.832Z,641.00
2023-05-10T06:02:40.044Z,640.00
2023-05-10T06:03:40.017Z,632.00
2023-05-10T06:04:40.163Z,641.00
2023-05-10T06:05:40.074Z,637.00
2023-05-10T06:06:40.132Z,637.00
2023-05-10T06:07:40.203Z,638.00
2023-05-10T06:08:40.259Z,641.00
2023-05-10T06:09:41.131Z,646.00
2023-05-10T06:10:40.367Z,647.00
2023-05-10T06:11:40.435Z,652.00
2023-05-10T06:12:40.509Z,647.00
2023-05-10T06:13:40.560Z,645.00
2023-05-10T06:14:40.596Z,643.00
2023-05-10T06:15:40.671Z,649.00
2023-05-10T06:16:40.823Z,646.00
2023-05-10T06:17:40.797Z,644.00
2023-05-10T06:18:40.830Z,653.00
2023-05-10T06:19:40.868Z,651.00
2023-05-10T06:20:40.928Z,646.00
2023-05-10T06:21:40.965Z,654.00
2023-05-10T06:22:41.018Z,657.00
2023-05-10T06:23:41.063Z,612.00
2023-05-10T06:24:41.142Z,573.00
2023-05-10T06:25:41.235Z,513.00
2023-05-10T06:26:41.247Z,518.00
2023-05-10T06:27:41.283Z,500.00
2023-05-10T06:28:41.293Z,502.00
2023-05-10T06:29:42.637Z,521.00
2023-05-10T06:30:41.392Z,542.00
2023-05-10T06:31:41.518Z,530.00
2023-05-10T06:32:41.610Z,518.00
2023-05-10T06:33:42.147Z,517.00
2023-05-10T06:34:41.694Z,521.00
2023-05-10T06:35:41.747Z,548.00
2023-05-10T06:36:41.774Z,551.00
2023-05-10T06:37:41.830Z,576.00
2023-05-10T06:38:41.873Z,568.00
2023-05-10T06:39:41.912Z,544.00
2023-05-10T06:40:41.922Z,530.00
2023-05-10T06:41:41.972Z,501.00
2023-05-10T06:42:42.005Z,503.00
2023-05-10T06:43:42.032Z,507.00
2023-05-10T06:44:42.063Z,513.00
2023-05-10T06:45:42.110Z,527.00
2023-05-10T06:46:42.182Z,577.00
2023-05-10T06:47:42.194Z,560.00
2023-05-10T06:48:42.194Z,518.00
2023-05-10T06:49:42.206Z,518.00
2023-05-10T06:50:42.229Z,521.00
2023-05-10T06:51:42.238Z,522.00
2023-05-10T06:52:42.249Z,541.00
2023-05-10T06:53:42.351Z,562.00
2023-05-10T06:54:42.288Z,553.00
2023-05-10T06:55:42.299Z,573.00
2023-05-10T06:56:42.315Z,565.00
2023-05-10T06:57:42.345Z,565.00
2023-05-10T06:58:42.404Z,562.00
2023-05-10T06:59:42.379Z,549.00
2023-05-10T07:00:42.429Z,545.00
2023-05-10T07:01:42.427Z,530.00
2023-05-10T07:02:42.500Z,538.00
2023-05-10T07:03:43.166Z,525.00
2023-05-10T07:04:42.489Z,551.00
2023-05-10T07:05:42.536Z,552.00
2023-05-10T07:06:42.560Z,569.00
2023-05-10T07:07:42.632Z,588.00
2023-05-10T07:08:42.646Z,548.00
2023-05-10T07:09:42.651Z,490.00
2023-05-10T07:10:42.670Z,493.00
2023-05-10T07:11:42.690Z,511.00
2023-05-10T07:12:42.816Z,495.00
2023-05-10T07:13:42.754Z,500.00
2023-05-10T07:14:42.848Z,500.00
2023-05-10T07:15:42.849Z,507.00
2023-05-10T07:16:42.855Z,506.00
2023-05-10T07:17:45.497Z,528.00
2023-05-10T07:18:43.749Z,547.00
2023-05-10T07:19:43.865Z,549.00
2023-05-10T07:20:43.655Z,556.00
2023-05-10T07:21:42.905Z,568.00
2023-05-10T07:22:42.898Z,607.00
2023-05-10T07:23:44.965Z,649.00
2023-05-10T07:24:42.929Z,677.00
2023-05-10T07:25:43.661Z,701.00
2023-05-10T07:26:43.019Z,706.00
2023-05-10T07:27:42.975Z,741.00
2023-05-10T07:28:43.013Z,769.00
2023-05-10T07:29:43.074Z,804.00
2023-05-10T07:30:43.218Z,829.00
2023-05-10T07:31:43.184Z,846.00
2023-05-10T07:32:50.164Z,872.00
2023-05-10T07:33:43.238Z,875.00
2023-05-10T07:34:43.172Z,887.00
2023-05-10T07:35:44.175Z,911.00
2023-05-10T07:36:43.187Z,879.00
2023-05-10T07:37:43.950Z,901.00
2023-05-10T07:38:43.168Z,951.00
2023-05-10T07:39:43.155Z,1020.00
2023-05-10T07:40:43.136Z,1137.00
2023-05-10T07:41:43.669Z,1173.00
2023-05-10T07:42:43.169Z,1201.00
2023-05-10T07:43:43.115Z,1219.00
2023-05-10T07:44:43.116Z,1249.00
2023-05-10T07:45:43.123Z,1271.00
2023-05-10T07:46:43.096Z,1295.00
2023-05-10T07:47:43.149Z,1325.00
2023-05-10T07:48:43.687Z,1352.00
2023-05-10T07:49:43.072Z,1380.00
2023-05-10T07:50:43.055Z,1403.00
2023-05-10T07:51:43.051Z,1418.00
2023-05-10T07:52:43.051Z,1447.00
2023-05-10T07:53:43.665Z,1449.00
2023-05-10T07:54:43.044Z,1455.00
2023-05-10T07:55:43.661Z,1477.00
2023-05-10T07:56:43.008Z,1511.00
2023-05-10T07:57:43.001Z,1567.00
2023-05-10T07:58:43.006Z,1596.00
2023-05-10T07:59:43.005Z,1598.00
2023-05-10T08:00:44.686Z,1606.00
2023-05-10T08:01:43.182Z,1622.00
2023-05-10T08:02:42.988Z,1647.00
2023-05-10T08:03:43.036Z,1693.00
2023-05-10T08:04:43.790Z,1726.00
2023-05-10T08:05:42.909Z,1728.00
2023-05-10T08:06:43.789Z,1735.00
2023-05-10T08:07:42.910Z,1757.00
2023-05-10T08:08:42.892Z,1791.00
2023-05-10T08:09:42.868Z,1850.00
2023-05-10T08:10:42.916Z,1888.00
2023-05-10T08:11:42.841Z,1887.00
2023-05-10T08:12:42.823Z,1914.00
2023-05-10T08:13:42.817Z,1906.00
2023-05-10T08:14:42.795Z,1916.00
2023-05-10T08:15:42.860Z,1718.00
2023-05-10T08:16:42.780Z,1483.00
2023-05-10T08:17:42.814Z,1228.00
2023-05-10T08:18:42.856Z,1016.00
2023-05-10T08:19:42.795Z,1065.00
2023-05-10T08:20:42.789Z,899.00
2023-05-10T08:21:42.787Z,798.00
2023-05-10T08:22:46.137Z,624.00
2023-05-10T08:23:42.800Z,564.00
2023-05-10T08:24:42.839Z,548.00
2023-05-10T08:25:43.190Z,609.00
2023-05-10T08:26:43.892Z,625.00
2023-05-10T08:27:42.854Z,632.00
2023-05-10T08:28:42.852Z,645.00
2023-05-10T08:29:50.215Z,626.00
2023-05-10T08:30:43.596Z,627.00
2023-05-10T08:31:43.001Z,638.00
2023-05-10T08:32:42.896Z,657.00
2023-05-10T08:33:44.542Z,712.00
2023-05-10T08:34:42.865Z,825.00
2023-05-10T08:35:42.858Z,853.00
2023-05-10T08:36:42.857Z,866.00
2023-05-10T08:37:42.862Z,892.00
2023-05-10T08:38:42.851Z,923.00
2023-05-10T08:39:43.683Z,953.00
2023-05-10T08:40:42.849Z,977.00
2023-05-10T08:41:42.857Z,1001.00
2023-05-10T08:42:42.870Z,1030.00
2023-05-10T08:43:42.918Z,1064.00
2023-05-10T08:44:44.712Z,1097.00
2023-05-10T08:45:42.909Z,1118.00
2023-05-10T08:46:48.932Z,1120.00
2023-05-10T08:47:42.898Z,1122.00
2023-05-10T08:48:44.061Z,1135.00
2023-05-10T08:49:42.855Z,1171.00
2023-05-10T08:50:42.872Z,1212.00
2023-05-10T08:51:43.908Z,1126.00
2023-05-10T08:52:42.816Z,1153.00
2023-05-10T08:53:43.085Z,1206.00
2023-05-10T08:54:44.706Z,1129.00
2023-05-10T08:55:42.782Z,1165.00
2023-05-10T08:56:42.916Z,1234.00
2023-05-10T08:57:44.091Z,1341.00
2023-05-10T08:58:42.744Z,1501.00
2023-05-10T08:59:42.737Z,1532.00
2023-05-10T09:00:44.203Z,1534.00
2023-05-10T09:01:42.710Z,1535.00
2023-05-10T09:02:42.701Z,1546.00
2023-05-10T09:03:42.714Z,1572.00
2023-05-10T09:04:42.736Z,1624.00
2023-05-10T09:05:43.213Z,1539.00
2023-05-10T09:06:42.602Z,1564.00
2023-05-10T09:07:42.599Z,1612.00
2023-05-10T09:08:42.587Z,1680.00
2023-05-10T09:09:42.588Z,1787.00
2023-05-10T09:10:43.217Z,1818.00
2023-05-10T09:11:43.219Z,1830.00
2023-05-10T09:12:42.741Z,1844.00
2023-05-10T09:13:42.750Z,1862.00
2023-05-10T09:14:42.601Z,1911.00
2023-05-10T09:15:42.528Z,1947.00
2023-05-10T09:16:42.552Z,1984.00
2023-05-10T09:17:42.600Z,1977.00
2023-05-10T09:18:42.520Z,1959.00
2023-05-10T09:19:42.495Z,1963.00
2023-05-10T09:20:42.487Z,1943.00
2023-05-10T09:21:42.473Z,1946.00
2023-05-10T09:22:42.467Z,1949.00
2023-05-10T09:23:42.464Z,1949.00
2023-05-10T09:24:42.445Z,1954.00
2023-05-10T09:25:42.457Z,1951.00
2023-05-10T09:26:42.449Z,1948.00
2023-05-10T09:27:42.476Z,1948.00
2023-05-10T09:28:42.461Z,1963.00
2023-05-10T09:29:42.479Z,1957.00
2023-05-10T09:30:42.528Z,1952.00
2023-05-10T09:31:42.526Z,1955.00
2023-05-10T09:32:42.584Z,1959.00
2023-05-10T09:33:42.529Z,1961.00
2023-05-10T09:34:42.554Z,1954.00
2023-05-10T09:35:42.580Z,1943.00
2023-05-10T09:36:42.619Z,1957.00
2023-05-10T09:37:42.597Z,1955.00
2023-05-10T09:38:42.621Z,1935.00
2023-05-10T09:39:42.636Z,1935.00
2023-05-10T09:40:42.711Z,1935.00
2023-05-10T09:41:42.692Z,1938.00
2023-05-10T09:42:42.726Z,1937.00
2023-05-10T09:43:42.730Z,1932.00
2023-05-10T09:44:42.754Z,1922.00
2023-05-10T09:45:42.793Z,1925.00
2023-05-10T09:46:42.902Z,1921.00
2023-05-10T09:47:42.875Z,1915.00
2023-05-10T09:48:42.868Z,1913.00
2023-05-10T09:49:42.901Z,1897.00
2023-05-10T09:50:42.945Z,1909.00
2023-05-10T09:51:42.960Z,1901.00
2023-05-10T09:52:42.994Z,1908.00
2023-05-10T09:53:43.024Z,1888.00
2023-05-10T09:54:43.061Z,1894.00
2023-05-10T09:55:43.085Z,1876.00
2023-05-10T09:56:43.142Z,1880.00
2023-05-10T09:57:43.156Z,1882.00
2023-05-10T09:58:43.166Z,1862.00
2023-05-10T09:59:43.206Z,1861.00
2023-05-10T10:00:43.260Z,1865.00
2023-05-10T10:01:43.310Z,1843.00
2023-05-10T10:03:19.845Z,500.00
2023-05-10T10:04:19.849Z,500.00
2023-05-10T10:05:19.841Z,500.00
2023-05-10T10:06:29.571Z,500.00
2023-05-10T10:07:19.872Z,500.00
2023-05-10T10:08:19.894Z,500.00
2023-05-10T10:09:19.911Z,500.00
2023-05-10T10:10:19.950Z,500.00
2023-05-10T10:11:19.938Z,500.00
2023-05-10T10:12:19.958Z,503.00
2023-05-10T10:13:19.983Z,500.00
2023-05-10T10:14:19.982Z,502.00
2023-05-10T10:15:20.147Z,503.00
2023-05-10T10:16:20.095Z,500.00
2023-05-10T10:17:20.027Z,503.00
2023-05-10T10:18:20.080Z,504.00
2023-05-10T10:19:20.099Z,505.00
2023-05-10T10:20:20.349Z,505.00
2023-05-10T10:21:20.320Z,503.00
2023-05-10T10:22:20.074Z,501.00
2023-05-10T10:23:20.087Z,502.00
2023-05-10T10:24:21.999Z,501.00
2023-05-10T10:25:20.169Z,502.00
2023-05-10T10:26:20.130Z,503.00
2023-05-10T10:27:20.131Z,504.00
2023-05-10T10:28:20.148Z,500.00
2023-05-10T10:29:20.150Z,502.00
2023-05-10T10:30:20.169Z,502.00
2023-05-10T10:31:20.242Z,503.00
2023-05-10T10:32:20.234Z,500.00
2023-05-10T10:33:28.576Z,499.00
2023-05-10T10:34:20.237Z,501.00
2023-05-10T10:35:20.233Z,499.00
2023-05-10T10:36:20.274Z,497.00
2023-05-10T10:37:20.297Z,493.00
2023-05-10T10:38:20.336Z,487.00
2023-05-10T10:39:20.332Z,502.00
2023-05-10T10:40:20.426Z,505.00
2023-05-10T10:41:20.458Z,505.00
2023-05-10T10:42:20.447Z,500.00
2023-05-10T10:43:20.444Z,500.00
2023-05-10T10:44:20.471Z,506.00
2023-05-10T10:45:20.418Z,503.00
2023-05-10T10:46:20.465Z,505.00
2023-05-10T10:47:20.460Z,505.00
2023-05-10T10:48:20.509Z,502.00
2023-05-10T10:49:20.550Z,501.00
2023-05-10T10:50:20.515Z,502.00
2023-05-10T10:51:20.589Z,503.00
2023-05-10T10:52:20.573Z,504.00
2023-05-10T10:53:20.668Z,500.00
2023-05-10T10:54:20.598Z,507.00
2023-05-10T10:55:20.751Z,500.00
2023-05-10T10:56:20.645Z,507.00
2023-05-10T10:57:20.679Z,503.00
2023-05-10T10:58:20.678Z,506.00
2023-05-10T10:59:20.713Z,505.00
2023-05-10T11:00:20.767Z,504.00
2023-05-10T11:01:20.925Z,502.00
2023-05-10T11:02:20.856Z,502.00
2023-05-10T11:03:20.899Z,504.00
2023-05-10T11:04:20.977Z,503.00
2023-05-10T11:05:21.014Z,507.00
2023-05-10T11:06:21.048Z,506.00
2023-05-10T11:07:21.097Z,504.00
2023-05-10T11:08:21.150Z,506.00
2023-05-10T11:09:21.208Z,504.00
2023-05-10T11:10:21.258Z,505.00
2023-05-10T11:11:21.295Z,502.00
2023-05-10T11:12:21.338Z,502.00
2023-05-10T11:13:21.424Z,500.00
2023-05-10T11:14:21.455Z,509.00
2023-05-10T11:15:21.491Z,507.00
2023-05-10T11:16:21.624Z,504.00
2023-05-10T11:17:21.592Z,503.00
2023-05-10T11:18:21.669Z,507.00
2023-05-10T11:19:21.682Z,506.00
2023-05-10T11:20:21.735Z,503.00
2023-05-10T11:21:21.785Z,505.00
2023-05-10T11:22:21.860Z,503.00
2023-05-10T11:23:21.906Z,504.00
2023-05-10T11:24:21.975Z,500.00
2023-05-10T11:25:22.009Z,502.00
2023-05-10T11:26:22.079Z,502.00
2023-05-10T11:27:22.115Z,505.00
2023-05-10T11:28:22.172Z,503.00
2023-05-10T11:29:22.282Z,506.00
2023-05-10T11:30:22.282Z,502.00
2023-05-10T11:31:22.500Z,502.00
2023-05-10T11:32:22.445Z,503.00
2023-05-10T11:33:22.434Z,504.00
2023-05-10T11:34:22.507Z,503.00
2023-05-10T11:35:22.540Z,503.00
2023-05-10T11:36:22.593Z,502.00
2023-05-10T11:37:22.645Z,506.00
2023-05-10T11:38:22.702Z,502.00
2023-05-10T11:39:22.756Z,502.00
2023-05-10T11:40:22.812Z,504.00
2023-05-10T11:41:22.850Z,501.00
2023-05-10T11:42:22.888Z,503.00
2023-05-10T11:43:22.933Z,501.00
2023-05-10T11:44:23.008Z,506.00
2023-05-10T11:45:23.049Z,503.00
2023-05-10T11:46:23.162Z,500.00
2023-05-10T11:47:23.202Z,502.00
2023-05-10T11:48:23.228Z,502.00
2023-05-10T11:49:23.256Z,505.00
2023-05-10T11:50:23.320Z,503.00
2023-05-10T11:51:23.365Z,502.00
2023-05-10T11:52:23.427Z,500.00
2023-05-10T11:53:25.814Z,504.00
2023-05-10T11:54:23.520Z,500.00
2023-05-10T11:55:23.581Z,505.00
2023-05-10T11:56:23.625Z,506.00
2023-05-10T11:57:23.672Z,508.00
2023-05-10T11:58:23.729Z,505.00
2023-05-10T11:59:23.762Z,509.00
2023-05-10T12:00:23.824Z,505.00
2023-05-10T12:01:23.882Z,506.00
2023-05-10T12:02:24.063Z,505.00
2023-05-10T12:03:24.191Z,503.00
2023-05-10T12:04:24.056Z,509.00
2023-05-10T12:05:24.100Z,507.00
2023-05-10T12:06:24.165Z,503.00
2023-05-10T12:07:24.204Z,509.00
2023-05-10T12:08:24.257Z,506.00
2023-05-10T12:09:39.638Z,504.00
2023-05-10T12:10:24.351Z,504.00
2023-05-10T12:11:24.510Z,505.00
2023-05-10T12:12:24.369Z,504.00
2023-05-10T12:13:24.388Z,500.00
2023-05-10T12:14:24.411Z,498.00
2023-05-10T12:15:24.492Z,504.00
2023-05-10T12:16:24.510Z,504.00
2023-05-10T12:17:24.493Z,505.00
2023-05-10T12:18:24.534Z,506.00
2023-05-10T12:19:24.507Z,505.00
2023-05-10T12:20:24.524Z,507.00
2023-05-10T12:21:24.551Z,509.00
2023-05-10T12:22:24.572Z,503.00
2023-05-10T12:23:24.602Z,506.00
2023-05-10T12:24:24.623Z,501.00
2023-05-10T12:25:24.640Z,502.00